createdAt,value
2018-10-17T00:04:07.483Z,"    0"
2018-10-17T00:09:03.325Z,"    0"
2018-10-17T00:13:59.237Z,"    0"
2018-10-17T00:18:55.156Z,"    0"
2018-10-17T00:23:50.911Z,"    0"
2018-10-17T00:28:47.843Z,"    0"
2018-10-17T00:33:43.297Z,"    0"
2018-10-17T00:38:39.022Z,"    0"
2018-10-17T00:43:34.943Z,"    0"
2018-10-17T00:48:31.660Z,"    0"
2018-10-17T00:53:27.195Z,"    0"
2018-10-17T00:58:23.180Z,"    0"
2018-10-17T01:03:19.082Z,"    0"
2018-10-17T01:08:14.696Z,"    0"
2018-10-17T01:13:10.868Z,"    0"
2018-10-17T01:18:07.739Z,"    0"
2018-10-17T01:23:03.143Z,"    0"
2018-10-17T01:27:59.124Z,"    0"
2018-10-17T01:32:55.765Z,"    0"
2018-10-17T01:37:52.543Z,"    0"
2018-10-17T01:42:48.643Z,"    0"
2018-10-17T01:47:45.386Z,"    0"
2018-10-17T01:52:40.842Z,"    0"
2018-10-17T01:57:36.401Z,"    0"
2018-10-17T02:02:32.111Z,"    0"
2018-10-17T02:07:27.983Z,"    0"
2018-10-17T02:12:23.755Z,"    0"
2018-10-17T02:17:19.443Z,"    0"
2018-10-17T02:22:15.313Z,"    0"
2018-10-17T02:27:11.025Z,"    0"
2018-10-17T02:32:07.013Z,"    0"
2018-10-17T02:37:02.862Z,"    0"
2018-10-17T02:41:58.798Z,"    0"
2018-10-17T02:46:54.590Z,"    0"
2018-10-17T02:51:50.428Z,"    0"
2018-10-17T02:56:47.854Z,"    0"
2018-10-17T03:01:43.805Z,"    0"
2018-10-17T03:06:39.623Z,"    0"
2018-10-17T03:11:35.350Z,"    0"
2018-10-17T03:16:31.284Z,"    0"
2018-10-17T03:21:26.826Z,"    0"
2018-10-17T03:26:22.709Z,"    0"
2018-10-17T03:31:18.296Z,"    0"
2018-10-17T03:36:14.330Z,"    0"
2018-10-17T03:41:10.307Z,"    0"
2018-10-17T03:46:06.156Z,"    0"
2018-10-17T03:51:02.040Z,"    0"
2018-10-17T03:55:57.912Z,"    0"
2018-10-17T04:00:54.183Z,"    0"
2018-10-17T04:05:51.140Z,"    0"
2018-10-17T04:10:47.606Z,"    0"
2018-10-17T04:15:42.611Z,"    0"
2018-10-17T04:20:38.421Z,"    0"
2018-10-17T04:25:34.217Z,"    0"
2018-10-17T04:30:30.156Z,"    0"
2018-10-17T04:35:26.070Z,"    0"
2018-10-17T04:40:21.825Z,"    0"
2018-10-17T04:45:18.203Z,"    0"
2018-10-17T04:50:14.958Z,"    0"
2018-10-17T04:55:10.689Z,"    0"
2018-10-17T05:00:06.994Z,"    0"
2018-10-17T05:05:03.078Z,"    0"
2018-10-17T05:09:59.012Z,"    0"
2018-10-17T05:14:54.869Z,"    0"
2018-10-17T05:19:50.894Z,"    0"
2018-10-17T05:24:46.816Z,"    0"
2018-10-17T05:29:42.501Z,"    4"
2018-10-17T05:34:38.593Z,"    8"
2018-10-17T05:39:34.216Z,"   16"
2018-10-17T05:44:30.093Z,"   32"
2018-10-17T05:49:26.271Z,"   68"
2018-10-17T05:54:22.962Z,"  124"
2018-10-17T05:59:19.496Z,"  184"
2018-10-17T06:04:15.758Z,"  240"
2018-10-17T06:09:11.245Z,"  332"
2018-10-17T06:14:07.468Z,"  476"
2018-10-17T06:19:05.512Z,"  608"
2018-10-17T06:24:01.842Z,"  768"
2018-10-17T06:28:58.674Z,"  972"
2018-10-17T06:33:54.341Z," 1080"
2018-10-17T06:38:51.245Z," 1104"
2018-10-17T06:43:47.736Z," 1168"
2018-10-17T06:48:43.751Z," 1236"
2018-10-17T06:53:39.688Z," 1444"
2018-10-17T06:58:35.493Z," 1716"
2018-10-17T07:03:31.440Z," 1884"
2018-10-17T07:08:27.437Z," 1900"
2018-10-17T07:13:23.614Z," 1904"
2018-10-17T07:18:19.612Z," 1984"
2018-10-17T07:23:15.564Z," 2248"
2018-10-17T07:28:11.356Z," 2452"
2018-10-17T07:33:08.181Z," 2868"
2018-10-17T07:38:03.895Z," 2924"
2018-10-17T07:43:00.083Z," 3364"
2018-10-17T07:47:56.106Z," 3924"
2018-10-17T07:52:52.203Z," 4696"
2018-10-17T07:57:48.364Z," 4692"
2018-10-17T08:02:45.767Z," 4620"
2018-10-17T08:07:42.576Z," 4524"
2018-10-17T08:12:39.097Z," 4164"
2018-10-17T08:17:36.120Z," 3936"
2018-10-17T08:22:32.847Z," 3628"
2018-10-17T08:27:28.622Z," 3480"
2018-10-17T08:32:24.515Z," 3852"
2018-10-17T08:37:22.359Z," 4468"
2018-10-17T08:42:18.319Z," 3880"
2018-10-17T08:47:14.219Z," 4312"
2018-10-17T08:52:10.398Z," 3884"
2018-10-17T08:57:07.414Z," 3988"
2018-10-17T09:02:03.310Z," 4200"
2018-10-17T09:06:59.443Z," 4208"
2018-10-17T09:11:55.483Z," 4080"
2018-10-17T09:16:51.501Z," 4860"
2018-10-17T09:21:49.338Z," 3832"
2018-10-17T09:26:45.997Z," 4084"
2018-10-17T09:31:41.933Z," 5472"
2018-10-17T09:36:38.055Z," 4620"
2018-10-17T09:41:35.399Z," 5764"
2018-10-17T09:46:33.104Z," 6016"
2018-10-17T09:51:30.489Z," 5820"
2018-10-17T09:56:28.317Z,10144
2018-10-17T10:01:25.567Z," 5552"
2018-10-17T10:06:21.390Z," 5952"
2018-10-17T10:11:17.153Z," 5744"
2018-10-17T10:16:15.040Z," 6012"
2018-10-17T10:21:10.508Z," 6380"
2018-10-17T10:26:06.427Z," 5104"
2018-10-17T10:31:02.809Z," 5624"
2018-10-17T10:35:58.727Z," 5348"
2018-10-17T10:40:55.115Z," 5616"
2018-10-17T10:45:51.009Z," 7032"
2018-10-17T10:50:47.184Z," 8604"
2018-10-17T10:55:43.423Z," 7280"
2018-10-17T11:00:39.252Z,11308
2018-10-17T11:05:36.704Z,15412
2018-10-17T11:10:33.340Z,27104
2018-10-17T11:15:29.948Z,11756
2018-10-17T11:20:26.071Z," 8688"
2018-10-17T11:25:22.039Z," 7956"
2018-10-17T11:30:18.917Z," 7344"
2018-10-17T11:35:15.757Z," 6680"
2018-10-17T11:40:11.568Z," 6408"
2018-10-17T11:45:08.624Z," 6100"
2018-10-17T11:50:04.205Z," 7144"
2018-10-17T11:55:00.564Z," 7784"
2018-10-17T11:59:57.395Z," 7408"
2018-10-17T12:04:54.553Z," 7704"
2018-10-17T12:09:50.289Z," 8168"
2018-10-17T12:14:46.322Z," 7812"
2018-10-17T12:19:43.372Z," 7772"
2018-10-17T12:24:40.353Z," 7780"
2018-10-17T12:29:37.038Z," 7840"
2018-10-17T12:34:32.975Z," 8036"
2018-10-17T12:39:29.021Z," 8052"
2018-10-17T12:44:25.043Z," 8096"
2018-10-17T12:49:21.331Z," 8028"
2018-10-17T12:54:17.796Z," 7608"
2018-10-17T12:59:14.033Z," 7252"
2018-10-17T13:04:10.025Z," 7052"
2018-10-17T13:09:06.829Z," 6788"
2018-10-17T13:14:02.400Z," 6424"
2018-10-17T13:18:58.467Z," 5972"
2018-10-17T13:23:54.609Z," 5780"
2018-10-17T13:28:51.422Z," 5592"
2018-10-17T13:33:47.118Z," 5484"
2018-10-17T13:38:43.153Z," 5480"
2018-10-17T13:43:39.217Z," 5364"
2018-10-17T13:48:35.198Z," 5160"
2018-10-17T13:53:31.244Z," 5076"
2018-10-17T13:58:27.125Z," 4864"
2018-10-17T14:03:23.844Z," 4672"
2018-10-17T14:08:20.664Z," 4436"
2018-10-17T14:13:17.254Z," 4240"
2018-10-17T14:18:12.981Z," 4128"
2018-10-17T14:23:10.127Z," 4084"
2018-10-17T14:28:06.894Z," 4064"
2018-10-17T14:33:02.652Z," 4056"
2018-10-17T14:37:59.800Z," 3968"
2018-10-17T14:42:55.336Z," 3668"
2018-10-17T14:47:51.556Z," 3424"
2018-10-17T14:52:47.381Z," 3396"
2018-10-17T14:57:43.217Z," 3172"
2018-10-17T15:02:40.065Z," 2836"
2018-10-17T15:07:36.024Z," 2548"
2018-10-17T15:12:32.833Z," 2300"
2018-10-17T15:17:28.545Z," 2132"
2018-10-17T15:22:24.506Z," 1996"
2018-10-17T15:27:20.249Z," 1824"
2018-10-17T15:32:16.178Z," 1548"
2018-10-17T15:37:12.244Z," 1336"
2018-10-17T15:42:08.303Z," 1144"
2018-10-17T15:47:04.092Z," 1000"
2018-10-17T15:52:00.903Z,"  860"
2018-10-17T15:56:57.702Z,"  708"
2018-10-17T16:01:54.163Z,"  584"
2018-10-17T16:06:49.604Z,"  472"
2018-10-17T16:11:46.529Z,"  372"
2018-10-17T16:16:42.983Z,"  272"
2018-10-17T16:21:39.440Z,"  196"
2018-10-17T16:26:34.951Z,"  144"
2018-10-17T16:31:30.792Z,"  104"
2018-10-17T16:36:27.007Z,"   64"
2018-10-17T16:41:23.944Z,"   40"
2018-10-17T16:46:19.386Z,"   20"
2018-10-17T16:51:15.399Z,"    8"
2018-10-17T16:56:11.085Z,"    4"
2018-10-17T17:01:07.909Z,"    0"
2018-10-17T17:06:04.459Z,"    0"
2018-10-17T17:10:59.899Z,"    0"
2018-10-17T17:15:56.182Z,"    0"
2018-10-17T17:20:51.997Z,"    0"
2018-10-17T17:25:47.772Z,"    0"
2018-10-17T17:30:43.657Z,"    0"
2018-10-17T17:35:40.541Z,"    0"
2018-10-17T17:40:36.106Z,"    0"
2018-10-17T17:50:28.333Z,"    0"
2018-10-17T17:55:23.915Z,"    0"
2018-10-17T18:00:19.723Z,"    0"
2018-10-17T18:05:15.418Z,"    0"
2018-10-17T18:10:12.481Z,"    0"
2018-10-17T18:15:07.753Z,"    0"
2018-10-17T18:20:04.053Z,"    0"
2018-10-17T18:24:59.913Z,"    0"
2018-10-17T18:29:57.010Z,"    0"
2018-10-17T18:34:52.428Z,"    0"
2018-10-17T18:39:48.142Z,"    0"
2018-10-17T18:44:43.879Z,"    0"
2018-10-17T18:49:41.013Z,"    0"
2018-10-17T18:54:36.870Z,"    0"
2018-10-17T18:59:33.065Z,"    0"
2018-10-17T19:04:29.087Z,"    0"
2018-10-17T19:09:25.088Z,"    0"
2018-10-17T19:14:20.934Z,"    0"
2018-10-17T19:19:16.769Z,"    0"
2018-10-17T19:24:14.243Z,"    0"
2018-10-17T19:29:09.821Z,"    0"
2018-10-17T19:34:05.755Z,"    0"
2018-10-17T19:39:02.564Z,"    0"
2018-10-17T19:43:58.868Z,"    0"
2018-10-17T19:48:54.113Z,"    0"
2018-10-17T19:53:50.319Z,"    0"
2018-10-17T19:58:46.937Z,"    0"
2018-10-17T20:03:42.426Z,"    0"
2018-10-17T20:08:38.226Z,"    0"
2018-10-17T20:13:33.873Z,"    0"
2018-10-17T20:18:30.174Z,"    0"
2018-10-17T20:23:26.010Z,"    0"
2018-10-17T20:28:21.874Z,"    0"
2018-10-17T20:33:18.736Z,"    0"
2018-10-17T20:38:14.360Z,"    0"
2018-10-17T20:43:10.344Z,"    0"
2018-10-17T20:48:06.272Z,"    0"
2018-10-17T20:53:02.880Z,"    0"
2018-10-17T20:57:59.453Z,"    0"
2018-10-17T21:02:55.137Z,"    0"
2018-10-17T21:07:52.416Z,"    0"
2018-10-17T21:12:49.034Z,"    0"
2018-10-17T21:17:44.727Z,"    0"
2018-10-17T21:22:41.485Z,"    0"
2018-10-17T21:27:37.490Z,"    0"
2018-10-17T21:32:34.726Z,"    0"
2018-10-17T21:37:30.705Z,"    0"
2018-10-17T21:42:27.563Z,"    0"
2018-10-17T21:47:24.114Z,"    0"
2018-10-17T21:52:19.455Z,"    0"
2018-10-17T21:57:15.162Z,"    0"
2018-10-17T22:02:10.784Z,"    0"
2018-10-17T22:07:06.989Z,"    0"
2018-10-17T22:12:03.281Z,"    0"
2018-10-17T22:16:59.100Z,"    0"
2018-10-17T22:21:54.938Z,"    0"
2018-10-17T22:26:50.750Z,"    0"
2018-10-17T22:31:47.565Z,"    0"
2018-10-17T22:36:42.813Z,"    0"
2018-10-17T22:41:38.956Z,"    0"
2018-10-17T22:46:34.800Z,"    0"
2018-10-17T22:51:30.798Z,"    0"
2018-10-17T22:56:27.127Z,"    0"
2018-10-17T23:01:22.936Z,"    0"
2018-10-17T23:06:18.609Z,"    0"
2018-10-17T23:11:14.803Z,"    0"
2018-10-17T23:16:11.973Z,"    0"
2018-10-17T23:21:07.296Z,"    0"
2018-10-17T23:26:04.471Z,"    0"
2018-10-17T23:31:00.060Z,"    0"
2018-10-17T23:35:55.759Z,"    0"
2018-10-17T23:40:51.383Z,"    0"
2018-10-17T23:45:47.371Z,"    0"
2018-10-17T23:50:44.687Z,"    0"
2018-10-17T23:55:40.166Z,"    0"
